Главная страница
METAR-TAF:

METAR-TAF

Аэропорты :

Somerset Airport

Сомервилл, Нью-Джерси, США

широта: 40-37-26N, долгота: 074-40-10W, высота над уровнем моря: 32 м

Текущие метеонаблюдения

Эта сводка был подготовлена 33 минут назад, в 09:53 UTC
Ветер 3 Узел от северо-западный
Температура 17°C
Влажность 94%
Давление 1018 hPa
Видимость: 11.3 км
ясное небо

METAR: KSMQ 060953Z AUTO 32003KT 7SM CLR 17/16 A3007 RMK AO2 SLP183 T01720161

Время: 06:26 (10:26 UTC)


TAF: отсутствует

Метеонаблюдения и прогнозы для более 4000 аэропортов (сводки METAR и TAF).

Имеющиеся станции представлены на карте желтыми и красными точками.

Чтобы увидеть название станции, наведите на нее мышь.

Затем щелкните, чтобы увидеть метеонаблюдения и метеопрогнозы.

Управление картой: чтобы увеличить масштаб, щелкните зеленые кнопки с черным крестиком; чтобы уменьшить масштаб, щелкните зеленую кнопку с тире; для просмотра соседних карт щелкайте зеленые стрелки.


METAR-TAF: